sensor_id;sensor_type;location;lat;lon;timestamp;P1;durP1;ratioP1;P2;durP2;ratioP2
25349;SDS011;13302;48.796;11.978;2023-07-31T00:01:12;2.10;;;1.30;;
25349;SDS011;13302;48.796;11.978;2023-07-31T00:03:59;1.60;;;1.40;;
25349;SDS011;13302;48.796;11.978;2023-07-31T00:06:46;2.90;;;1.23;;
25349;SDS011;13302;48.796;11.978;2023-07-31T00:09:34;2.80;;;1.40;;
25349;SDS011;13302;48.796;11.978;2023-07-31T00:12:21;2.10;;;1.00;;
25349;SDS011;13302;48.796;11.978;2023-07-31T00:15:08;2.73;;;1.20;;
25349;SDS011;13302;48.796;11.978;2023-07-31T00:17:55;1.60;;;1.40;;
25349;SDS011;13302;48.796;11.978;2023-07-31T00:20:42;1.43;;;1.23;;
25349;SDS011;13302;48.796;11.978;2023-07-31T00:23:29;2.53;;;1.50;;
25349;SDS011;13302;48.796;11.978;2023-07-31T00:26:16;2.43;;;1.10;;
25349;SDS011;13302;48.796;11.978;2023-07-31T00:29:03;1.30;;;1.20;;
25349;SDS011;13302;48.796;11.978;2023-07-31T00:31:50;4.23;;;1.30;;
25349;SDS011;13302;48.796;11.978;2023-07-31T00:34:37;1.43;;;1.30;;
25349;SDS011;13302;48.796;11.978;2023-07-31T00:37:24;2.60;;;1.47;;
25349;SDS011;13302;48.796;11.978;2023-07-31T00:40:11;1.80;;;1.40;;
25349;SDS011;13302;48.796;11.978;2023-07-31T00:43:00;2.47;;;1.40;;
25349;SDS011;13302;48.796;11.978;2023-07-31T00:45:49;1.77;;;1.40;;
25349;SDS011;13302;48.796;11.978;2023-07-31T00:48:36;3.03;;;1.10;;
25349;SDS011;13302;48.796;11.978;2023-07-31T00:51:24;2.83;;;1.17;;
25349;SDS011;13302;48.796;11.978;2023-07-31T00:54:11;3.90;;;1.20;;
25349;SDS011;13302;48.796;11.978;2023-07-31T00:56:58;1.40;;;1.40;;
25349;SDS011;13302;48.796;11.978;2023-07-31T00:59:47;1.43;;;1.33;;
25349;SDS011;13302;48.796;11.978;2023-07-31T01:02:35;1.30;;;1.20;;
25349;SDS011;13302;48.796;11.978;2023-07-31T01:05:25;3.93;;;1.20;;
25349;SDS011;13302;48.796;11.978;2023-07-31T01:08:42;1.27;;;1.20;;
25349;SDS011;13302;48.796;11.978;2023-07-31T01:11:43;1.57;;;1.43;;
25349;SDS011;13302;48.796;11.978;2023-07-31T01:15:03;1.90;;;1.20;;
25349;SDS011;13302;48.796;11.978;2023-07-31T01:17:57;3.83;;;1.30;;
25349;SDS011;13302;48.796;11.978;2023-07-31T01:20:44;3.90;;;1.30;;
25349;SDS011;13302;48.796;11.978;2023-07-31T01:27:10;3.47;;;1.30;;
25349;SDS011;13302;48.796;11.978;2023-07-31T01:30:11;2.10;;;1.30;;
25349;SDS011;13302;48.796;11.978;2023-07-31T01:33:03;1.40;;;1.30;;
25349;SDS011;13302;48.796;11.978;2023-07-31T01:35:54;1.57;;;1.40;;
25349;SDS011;13302;48.796;11.978;2023-07-31T01:38:42;1.20;;;1.20;;
25349;SDS011;13302;48.796;11.978;2023-07-31T01:41:29;2.70;;;1.40;;
25349;SDS011;13302;48.796;11.978;2023-07-31T01:44:16;1.10;;;1.00;;
25349;SDS011;13302;48.796;11.978;2023-07-31T01:47:03;2.50;;;1.30;;
25349;SDS011;13302;48.796;11.978;2023-07-31T01:49:50;3.40;;;1.17;;
25349;SDS011;13302;48.796;11.978;2023-07-31T01:52:37;2.60;;;1.20;;
25349;SDS011;13302;48.796;11.978;2023-07-31T01:55:24;4.40;;;1.67;;
25349;SDS011;13302;48.796;11.978;2023-07-31T01:58:11;2.93;;;0.93;;
25349;SDS011;13302;48.796;11.978;2023-07-31T02:00:58;2.33;;;1.33;;
25349;SDS011;13302;48.796;11.978;2023-07-31T02:03:46;2.70;;;1.43;;
25349;SDS011;13302;48.796;11.978;2023-07-31T02:06:34;1.67;;;1.10;;
25349;SDS011;13302;48.796;11.978;2023-07-31T02:09:21;1.50;;;1.20;;
25349;SDS011;13302;48.796;11.978;2023-07-31T02:12:08;1.60;;;1.10;;
25349;SDS011;13302;48.796;11.978;2023-07-31T02:14:55;1.13;;;1.10;;
25349;SDS011;13302;48.796;11.978;2023-07-31T02:17:42;2.27;;;1.40;;
25349;SDS011;13302;48.796;11.978;2023-07-31T02:20:29;1.73;;;1.10;;
25349;SDS011;13302;48.796;11.978;2023-07-31T02:23:17;1.27;;;1.17;;
25349;SDS011;13302;48.796;11.978;2023-07-31T02:26:05;1.17;;;1.10;;
25349;SDS011;13302;48.796;11.978;2023-07-31T02:28:52;1.70;;;1.50;;
25349;SDS011;13302;48.796;11.978;2023-07-31T02:31:39;2.33;;;1.17;;
25349;SDS011;13302;48.796;11.978;2023-07-31T02:34:26;2.07;;;1.40;;
25349;SDS011;13302;48.796;11.978;2023-07-31T02:37:13;1.47;;;1.30;;
25349;SDS011;13302;48.796;11.978;2023-07-31T02:40:00;2.03;;;1.10;;
25349;SDS011;13302;48.796;11.978;2023-07-31T02:42:49;1.10;;;1.00;;
25349;SDS011;13302;48.796;11.978;2023-07-31T02:45:36;2.60;;;1.23;;
25349;SDS011;13302;48.796;11.978;2023-07-31T02:48:24;2.53;;;1.10;;
25349;SDS011;13302;48.796;11.978;2023-07-31T02:51:11;2.17;;;1.20;;
25349;SDS011;13302;48.796;11.978;2023-07-31T02:53:58;2.60;;;1.10;;
25349;SDS011;13302;48.796;11.978;2023-07-31T02:56:45;2.47;;;1.20;;
25349;SDS011;13302;48.796;11.978;2023-07-31T02:59:32;1.30;;;1.13;;
25349;SDS011;13302;48.796;11.978;2023-07-31T03:02:19;1.63;;;1.00;;
25349;SDS011;13302;48.796;11.978;2023-07-31T03:05:06;2.73;;;1.20;;
25349;SDS011;13302;48.796;11.978;2023-07-31T03:07:53;3.17;;;1.37;;
25349;SDS011;13302;48.796;11.978;2023-07-31T03:10:40;3.00;;;1.40;;
25349;SDS011;13302;48.796;11.978;2023-07-31T03:13:27;1.73;;;1.27;;
25349;SDS011;13302;48.796;11.978;2023-07-31T03:16:14;1.43;;;1.00;;
25349;SDS011;13302;48.796;11.978;2023-07-31T03:19:02;1.20;;;1.07;;
25349;SDS011;13302;48.796;11.978;2023-07-31T03:21:49;1.43;;;1.23;;
25349;SDS011;13302;48.796;11.978;2023-07-31T03:24:36;2.53;;;1.17;;
25349;SDS011;13302;48.796;11.978;2023-07-31T03:27:23;3.63;;;1.50;;
25349;SDS011;13302;48.796;11.978;2023-07-31T03:30:11;4.60;;;1.37;;
25349;SDS011;13302;48.796;11.978;2023-07-31T03:32:58;1.50;;;1.20;;
25349;SDS011;13302;48.796;11.978;2023-07-31T03:35:46;2.67;;;1.30;;
25349;SDS011;13302;48.796;11.978;2023-07-31T03:38:34;1.17;;;1.17;;
25349;SDS011;13302;48.796;11.978;2023-07-31T03:41:21;1.43;;;1.33;;
25349;SDS011;13302;48.796;11.978;2023-07-31T03:44:08;1.37;;;1.30;;
25349;SDS011;13302;48.796;11.978;2023-07-31T03:46:56;2.53;;;1.20;;
25349;SDS011;13302;48.796;11.978;2023-07-31T03:49:43;1.80;;;1.30;;
25349;SDS011;13302;48.796;11.978;2023-07-31T03:52:30;5.13;;;1.70;;
25349;SDS011;13302;48.796;11.978;2023-07-31T03:55:17;1.43;;;1.33;;
25349;SDS011;13302;48.796;11.978;2023-07-31T03:58:04;1.20;;;1.20;;
25349;SDS011;13302;48.796;11.978;2023-07-31T04:00:51;2.97;;;1.20;;
25349;SDS011;13302;48.796;11.978;2023-07-31T04:03:38;2.67;;;1.10;;
25349;SDS011;13302;48.796;11.978;2023-07-31T04:06:25;1.10;;;1.10;;
25349;SDS011;13302;48.796;11.978;2023-07-31T04:09:12;1.57;;;1.20;;
25349;SDS011;13302;48.796;11.978;2023-07-31T04:11:59;2.37;;;1.10;;
25349;SDS011;13302;48.796;11.978;2023-07-31T04:14:46;1.77;;;1.33;;
25349;SDS011;13302;48.796;11.978;2023-07-31T04:17:33;1.80;;;1.10;;
25349;SDS011;13302;48.796;11.978;2023-07-31T04:20:21;2.30;;;1.80;;
25349;SDS011;13302;48.796;11.978;2023-07-31T04:23:08;2.50;;;1.40;;
25349;SDS011;13302;48.796;11.978;2023-07-31T04:25:55;2.03;;;1.30;;
25349;SDS011;13302;48.796;11.978;2023-07-31T04:28:42;1.57;;;1.27;;
25349;SDS011;13302;48.796;11.978;2023-07-31T04:31:29;1.40;;;1.30;;
25349;SDS011;13302;48.796;11.978;2023-07-31T04:34:16;2.00;;;1.33;;
25349;SDS011;13302;48.796;11.978;2023-07-31T04:37:03;2.13;;;1.30;;
25349;SDS011;13302;48.796;11.978;2023-07-31T04:39:50;1.20;;;1.10;;
25349;SDS011;13302;48.796;11.978;2023-07-31T04:42:37;1.57;;;1.43;;
25349;SDS011;13302;48.796;11.978;2023-07-31T04:45:24;2.23;;;1.30;;
25349;SDS011;13302;48.796;11.978;2023-07-31T04:48:11;2.17;;;1.33;;
25349;SDS011;13302;48.796;11.978;2023-07-31T04:50:58;1.53;;;1.40;;
25349;SDS011;13302;48.796;11.978;2023-07-31T04:53:45;2.00;;;1.43;;
25349;SDS011;13302;48.796;11.978;2023-07-31T04:56:32;2.33;;;1.70;;
25349;SDS011;13302;48.796;11.978;2023-07-31T04:59:19;2.20;;;1.60;;
25349;SDS011;13302;48.796;11.978;2023-07-31T05:02:07;1.50;;;1.40;;
25349;SDS011;13302;48.796;11.978;2023-07-31T05:04:55;1.90;;;1.50;;
25349;SDS011;13302;48.796;11.978;2023-07-31T05:07:42;1.83;;;1.60;;
25349;SDS011;13302;48.796;11.978;2023-07-31T05:10:29;1.63;;;1.50;;
25349;SDS011;13302;48.796;11.978;2023-07-31T05:13:16;2.70;;;1.70;;
25349;SDS011;13302;48.796;11.978;2023-07-31T05:16:03;2.73;;;1.53;;
25349;SDS011;13302;48.796;11.978;2023-07-31T05:18:50;1.47;;;1.47;;
25349;SDS011;13302;48.796;11.978;2023-07-31T05:21:37;1.50;;;1.50;;
25349;SDS011;13302;48.796;11.978;2023-07-31T05:24:25;3.07;;;1.70;;
25349;SDS011;13302;48.796;11.978;2023-07-31T05:27:12;2.17;;;1.90;;
25349;SDS011;13302;48.796;11.978;2023-07-31T05:30:01;2.07;;;1.60;;
25349;SDS011;13302;48.796;11.978;2023-07-31T05:32:49;1.63;;;1.53;;
25349;SDS011;13302;48.796;11.978;2023-07-31T05:35:36;2.10;;;1.60;;
25349;SDS011;13302;48.796;11.978;2023-07-31T05:38:23;1.83;;;1.73;;
25349;SDS011;13302;48.796;11.978;2023-07-31T05:41:12;1.70;;;1.60;;
25349;SDS011;13302;48.796;11.978;2023-07-31T05:43:59;4.63;;;1.80;;
25349;SDS011;13302;48.796;11.978;2023-07-31T05:46:46;2.93;;;1.80;;
25349;SDS011;13302;48.796;11.978;2023-07-31T05:49:34;2.70;;;1.83;;
25349;SDS011;13302;48.796;11.978;2023-07-31T05:52:21;2.87;;;1.97;;
25349;SDS011;13302;48.796;11.978;2023-07-31T05:55:08;2.50;;;1.60;;
25349;SDS011;13302;48.796;11.978;2023-07-31T05:57:55;1.63;;;1.57;;
25349;SDS011;13302;48.796;11.978;2023-07-31T06:00:45;1.67;;;1.57;;
25349;SDS011;13302;48.796;11.978;2023-07-31T06:03:33;1.83;;;1.53;;
25349;SDS011;13302;48.796;11.978;2023-07-31T06:06:20;2.27;;;1.57;;
25349;SDS011;13302;48.796;11.978;2023-07-31T06:09:07;1.67;;;1.40;;
25349;SDS011;13302;48.796;11.978;2023-07-31T06:11:54;1.93;;;1.67;;
25349;SDS011;13302;48.796;11.978;2023-07-31T06:14:41;3.33;;;1.40;;
25349;SDS011;13302;48.796;11.978;2023-07-31T06:17:28;2.30;;;1.70;;
25349;SDS011;13302;48.796;11.978;2023-07-31T06:20:16;1.60;;;1.50;;
25349;SDS011;13302;48.796;11.978;2023-07-31T06:23:03;1.50;;;1.40;;
25349;SDS011;13302;48.796;11.978;2023-07-31T06:25:50;1.50;;;1.40;;
25349;SDS011;13302;48.796;11.978;2023-07-31T06:28:37;1.60;;;1.50;;
25349;SDS011;13302;48.796;11.978;2023-07-31T06:31:24;2.63;;;1.60;;
25349;SDS011;13302;48.796;11.978;2023-07-31T06:34:11;1.70;;;1.60;;
25349;SDS011;13302;48.796;11.978;2023-07-31T06:36:58;1.97;;;1.80;;
25349;SDS011;13302;48.796;11.978;2023-07-31T06:39:45;1.93;;;1.83;;
25349;SDS011;13302;48.796;11.978;2023-07-31T06:42:32;4.80;;;2.07;;
25349;SDS011;13302;48.796;11.978;2023-07-31T06:45:19;1.70;;;1.60;;
25349;SDS011;13302;48.796;11.978;2023-07-31T06:48:07;1.67;;;1.57;;
25349;SDS011;13302;48.796;11.978;2023-07-31T06:50:54;2.33;;;1.67;;
25349;SDS011;13302;48.796;11.978;2023-07-31T06:53:41;1.97;;;1.73;;
25349;SDS011;13302;48.796;11.978;2023-07-31T06:56:28;4.70;;;1.60;;
25349;SDS011;13302;48.796;11.978;2023-07-31T06:59:15;1.50;;;1.40;;
25349;SDS011;13302;48.796;11.978;2023-07-31T07:02:02;2.10;;;1.57;;
25349;SDS011;13302;48.796;11.978;2023-07-31T07:04:52;2.43;;;1.60;;
25349;SDS011;13302;48.796;11.978;2023-07-31T07:07:40;1.50;;;1.40;;
25349;SDS011;13302;48.796;11.978;2023-07-31T07:10:27;1.80;;;1.47;;
25349;SDS011;13302;48.796;11.978;2023-07-31T07:13:14;1.60;;;1.50;;
25349;SDS011;13302;48.796;11.978;2023-07-31T07:16:01;1.67;;;1.53;;
25349;SDS011;13302;48.796;11.978;2023-07-31T07:18:48;1.97;;;1.50;;
25349;SDS011;13302;48.796;11.978;2023-07-31T07:21:49;2.13;;;1.83;;
25349;SDS011;13302;48.796;11.978;2023-07-31T07:24:36;1.57;;;1.47;;
25349;SDS011;13302;48.796;11.978;2023-07-31T07:27:24;2.00;;;1.57;;
25349;SDS011;13302;48.796;11.978;2023-07-31T07:30:11;5.53;;;2.37;;
25349;SDS011;13302;48.796;11.978;2023-07-31T07:32:58;3.90;;;3.37;;
25349;SDS011;13302;48.796;11.978;2023-07-31T07:35:45;3.50;;;2.03;;
25349;SDS011;13302;48.796;11.978;2023-07-31T07:38:32;1.70;;;1.60;;
25349;SDS011;13302;48.796;11.978;2023-07-31T07:41:19;1.70;;;1.60;;
25349;SDS011;13302;48.796;11.978;2023-07-31T07:44:07;1.70;;;1.60;;
25349;SDS011;13302;48.796;11.978;2023-07-31T07:46:55;1.80;;;1.70;;
25349;SDS011;13302;48.796;11.978;2023-07-31T07:49:42;1.60;;;1.33;;
25349;SDS011;13302;48.796;11.978;2023-07-31T07:52:34;1.33;;;1.33;;
25349;SDS011;13302;48.796;11.978;2023-07-31T07:55:21;1.40;;;1.33;;
25349;SDS011;13302;48.796;11.978;2023-07-31T07:58:08;1.70;;;1.60;;
25349;SDS011;13302;48.796;11.978;2023-07-31T08:00:55;1.70;;;1.60;;
25349;SDS011;13302;48.796;11.978;2023-07-31T08:03:42;2.57;;;1.50;;
25349;SDS011;13302;48.796;11.978;2023-07-31T08:06:29;1.40;;;1.30;;
25349;SDS011;13302;48.796;11.978;2023-07-31T08:09:17;2.00;;;1.40;;
25349;SDS011;13302;48.796;11.978;2023-07-31T08:12:04;1.60;;;1.50;;
25349;SDS011;13302;48.796;11.978;2023-07-31T08:14:52;6.80;;;1.50;;
25349;SDS011;13302;48.796;11.978;2023-07-31T08:17:39;2.67;;;1.80;;
25349;SDS011;13302;48.796;11.978;2023-07-31T08:20:26;2.17;;;1.40;;
25349;SDS011;13302;48.796;11.978;2023-07-31T08:23:13;3.10;;;1.63;;
25349;SDS011;13302;48.796;11.978;2023-07-31T08:26:00;1.67;;;1.57;;
25349;SDS011;13302;48.796;11.978;2023-07-31T08:28:47;2.73;;;1.90;;
25349;SDS011;13302;48.796;11.978;2023-07-31T08:31:35;19.80;;;16.10;;
25349;SDS011;13302;48.796;11.978;2023-07-31T08:34:22;18.07;;;16.17;;
25349;SDS011;13302;48.796;11.978;2023-07-31T08:37:09;14.60;;;13.07;;
25349;SDS011;13302;48.796;11.978;2023-07-31T08:39:57;8.07;;;6.47;;
25349;SDS011;13302;48.796;11.978;2023-07-31T08:42:49;8.37;;;5.40;;
25349;SDS011;13302;48.796;11.978;2023-07-31T08:45:37;3.57;;;3.30;;
25349;SDS011;13302;48.796;11.978;2023-07-31T08:48:28;3.40;;;3.10;;
25349;SDS011;13302;48.796;11.978;2023-07-31T08:51:18;2.43;;;2.23;;
25349;SDS011;13302;48.796;11.978;2023-07-31T08:54:05;1.70;;;1.53;;
25349;SDS011;13302;48.796;11.978;2023-07-31T08:56:52;2.00;;;1.70;;
25349;SDS011;13302;48.796;11.978;2023-07-31T08:59:40;1.50;;;1.40;;
25349;SDS011;13302;48.796;11.978;2023-07-31T09:05:56;1.93;;;1.83;;
25349;SDS011;13302;48.796;11.978;2023-07-31T09:08:44;1.93;;;1.77;;
25349;SDS011;13302;48.796;11.978;2023-07-31T09:11:31;1.70;;;1.60;;
25349;SDS011;13302;48.796;11.978;2023-07-31T09:14:19;1.80;;;1.70;;
25349;SDS011;13302;48.796;11.978;2023-07-31T09:17:06;1.57;;;1.47;;
25349;SDS011;13302;48.796;11.978;2023-07-31T09:19:53;2.60;;;1.47;;
25349;SDS011;13302;48.796;11.978;2023-07-31T09:22:40;3.63;;;2.13;;
25349;SDS011;13302;48.796;11.978;2023-07-31T09:25:28;1.83;;;1.70;;
25349;SDS011;13302;48.796;11.978;2023-07-31T09:28:15;2.43;;;1.87;;
25349;SDS011;13302;48.796;11.978;2023-07-31T09:31:03;1.90;;;1.80;;
25349;SDS011;13302;48.796;11.978;2023-07-31T09:33:55;2.60;;;2.17;;
25349;SDS011;13302;48.796;11.978;2023-07-31T09:36:44;2.33;;;2.13;;
25349;SDS011;13302;48.796;11.978;2023-07-31T09:39:45;2.03;;;1.87;;
25349;SDS011;13302;48.796;11.978;2023-07-31T09:42:34;2.07;;;1.87;;
25349;SDS011;13302;48.796;11.978;2023-07-31T09:45:21;2.00;;;1.90;;
25349;SDS011;13302;48.796;11.978;2023-07-31T09:48:18;2.03;;;1.60;;
25349;SDS011;13302;48.796;11.978;2023-07-31T09:51:05;2.07;;;1.73;;
25349;SDS011;13302;48.796;11.978;2023-07-31T09:53:52;3.33;;;1.80;;
25349;SDS011;13302;48.796;11.978;2023-07-31T09:56:41;2.20;;;1.93;;
25349;SDS011;13302;48.796;11.978;2023-07-31T09:59:32;2.67;;;1.87;;
25349;SDS011;13302;48.796;11.978;2023-07-31T10:02:20;1.87;;;1.77;;
25349;SDS011;13302;48.796;11.978;2023-07-31T10:05:08;1.83;;;1.70;;
25349;SDS011;13302;48.796;11.978;2023-07-31T10:07:59;2.13;;;1.93;;
25349;SDS011;13302;48.796;11.978;2023-07-31T10:10:46;2.10;;;2.00;;
25349;SDS011;13302;48.796;11.978;2023-07-31T10:13:33;2.33;;;1.80;;
25349;SDS011;13302;48.796;11.978;2023-07-31T10:16:20;2.00;;;1.80;;
25349;SDS011;13302;48.796;11.978;2023-07-31T10:19:08;4.07;;;1.87;;
25349;SDS011;13302;48.796;11.978;2023-07-31T10:21:55;2.27;;;1.67;;
25349;SDS011;13302;48.796;11.978;2023-07-31T10:24:45;3.07;;;1.70;;
25349;SDS011;13302;48.796;11.978;2023-07-31T10:27:33;3.07;;;1.50;;
25349;SDS011;13302;48.796;11.978;2023-07-31T10:30:23;1.73;;;1.63;;
25349;SDS011;13302;48.796;11.978;2023-07-31T10:33:14;2.27;;;1.63;;
25349;SDS011;13302;48.796;11.978;2023-07-31T10:36:17;1.73;;;1.63;;
25349;SDS011;13302;48.796;11.978;2023-07-31T10:39:05;2.03;;;1.70;;
25349;SDS011;13302;48.796;11.978;2023-07-31T10:42:30;2.03;;;1.80;;
25349;SDS011;13302;48.796;11.978;2023-07-31T10:45:24;1.70;;;1.60;;
25349;SDS011;13302;48.796;11.978;2023-07-31T10:48:13;2.03;;;1.60;;
25349;SDS011;13302;48.796;11.978;2023-07-31T10:51:02;1.83;;;1.73;;
25349;SDS011;13302;48.796;11.978;2023-07-31T10:54:06;3.20;;;1.83;;
25349;SDS011;13302;48.796;11.978;2023-07-31T10:56:58;1.70;;;1.60;;
25349;SDS011;13302;48.796;11.978;2023-07-31T10:59:45;1.30;;;1.30;;
25349;SDS011;13302;48.796;11.978;2023-07-31T11:02:33;1.80;;;1.70;;
25349;SDS011;13302;48.796;11.978;2023-07-31T11:05:20;2.00;;;1.90;;
25349;SDS011;13302;48.796;11.978;2023-07-31T11:08:12;1.50;;;1.40;;
25349;SDS011;13302;48.796;11.978;2023-07-31T11:11:10;1.80;;;1.70;;
25349;SDS011;13302;48.796;11.978;2023-07-31T11:13:59;2.30;;;1.70;;
25349;SDS011;13302;48.796;11.978;2023-07-31T11:16:46;1.60;;;1.50;;
25349;SDS011;13302;48.796;11.978;2023-07-31T11:19:37;2.80;;;1.50;;
25349;SDS011;13302;48.796;11.978;2023-07-31T11:22:24;1.83;;;1.60;;
25349;SDS011;13302;48.796;11.978;2023-07-31T11:25:11;1.80;;;1.70;;
25349;SDS011;13302;48.796;11.978;2023-07-31T11:28:02;1.80;;;1.70;;
25349;SDS011;13302;48.796;11.978;2023-07-31T11:30:55;1.60;;;1.50;;
25349;SDS011;13302;48.796;11.978;2023-07-31T11:33:42;2.73;;;1.70;;
25349;SDS011;13302;48.796;11.978;2023-07-31T11:36:29;1.80;;;1.70;;
25349;SDS011;13302;48.796;11.978;2023-07-31T11:39:16;1.47;;;1.37;;
25349;SDS011;13302;48.796;11.978;2023-07-31T11:42:03;1.73;;;1.47;;
25349;SDS011;13302;48.796;11.978;2023-07-31T11:44:51;1.80;;;1.70;;
25349;SDS011;13302;48.796;11.978;2023-07-31T11:47:38;2.27;;;1.47;;
25349;SDS011;13302;48.796;11.978;2023-07-31T11:50:25;1.60;;;1.50;;
25349;SDS011;13302;48.796;11.978;2023-07-31T11:53:13;1.67;;;1.57;;
25349;SDS011;13302;48.796;11.978;2023-07-31T11:56:00;1.30;;;1.30;;
25349;SDS011;13302;48.796;11.978;2023-07-31T11:58:51;2.77;;;1.67;;
25349;SDS011;13302;48.796;11.978;2023-07-31T12:01:45;4.10;;;1.60;;
25349;SDS011;13302;48.796;11.978;2023-07-31T12:04:32;2.03;;;1.83;;
25349;SDS011;13302;48.796;11.978;2023-07-31T12:07:19;1.97;;;1.77;;
25349;SDS011;13302;48.796;11.978;2023-07-31T12:10:06;1.60;;;1.50;;
25349;SDS011;13302;48.796;11.978;2023-07-31T12:13:08;2.67;;;1.50;;
25349;SDS011;13302;48.796;11.978;2023-07-31T12:16:04;3.03;;;1.60;;
25349;SDS011;13302;48.796;11.978;2023-07-31T12:18:52;1.53;;;1.43;;
25349;SDS011;13302;48.796;11.978;2023-07-31T12:21:39;1.80;;;1.60;;
25349;SDS011;13302;48.796;11.978;2023-07-31T12:24:26;1.53;;;1.43;;
25349;SDS011;13302;48.796;11.978;2023-07-31T12:27:14;2.57;;;1.53;;
25349;SDS011;13302;48.796;11.978;2023-07-31T12:30:02;1.50;;;1.40;;
25349;SDS011;13302;48.796;11.978;2023-07-31T12:32:49;3.13;;;1.80;;
25349;SDS011;13302;48.796;11.978;2023-07-31T12:35:36;1.80;;;1.70;;
25349;SDS011;13302;48.796;11.978;2023-07-31T12:38:24;1.77;;;1.60;;
25349;SDS011;13302;48.796;11.978;2023-07-31T12:41:12;1.70;;;1.60;;
25349;SDS011;13302;48.796;11.978;2023-07-31T12:43:59;1.87;;;1.57;;
25349;SDS011;13302;48.796;11.978;2023-07-31T12:46:46;1.47;;;1.40;;
25349;SDS011;13302;48.796;11.978;2023-07-31T12:49:33;2.93;;;1.80;;
25349;SDS011;13302;48.796;11.978;2023-07-31T12:52:20;1.50;;;1.40;;
25349;SDS011;13302;48.796;11.978;2023-07-31T12:55:07;2.87;;;1.47;;
25349;SDS011;13302;48.796;11.978;2023-07-31T12:57:54;1.63;;;1.53;;
25349;SDS011;13302;48.796;11.978;2023-07-31T13:00:42;2.30;;;1.47;;
25349;SDS011;13302;48.796;11.978;2023-07-31T13:03:29;1.63;;;1.53;;
25349;SDS011;13302;48.796;11.978;2023-07-31T13:06:16;1.80;;;1.70;;
25349;SDS011;13302;48.796;11.978;2023-07-31T13:09:03;3.00;;;1.90;;
25349;SDS011;13302;48.796;11.978;2023-07-31T13:11:51;2.43;;;1.67;;
25349;SDS011;13302;48.796;11.978;2023-07-31T13:14:38;2.63;;;1.80;;
25349;SDS011;13302;48.796;11.978;2023-07-31T13:17:25;2.13;;;1.70;;
25349;SDS011;13302;48.796;11.978;2023-07-31T13:20:12;1.83;;;1.67;;
25349;SDS011;13302;48.796;11.978;2023-07-31T13:22:59;3.40;;;1.90;;
25349;SDS011;13302;48.796;11.978;2023-07-31T13:25:47;1.80;;;1.70;;
25349;SDS011;13302;48.796;11.978;2023-07-31T13:28:34;1.63;;;1.53;;
25349;SDS011;13302;48.796;11.978;2023-07-31T13:31:21;2.37;;;1.57;;
25349;SDS011;13302;48.796;11.978;2023-07-31T13:34:08;2.03;;;1.93;;
25349;SDS011;13302;48.796;11.978;2023-07-31T13:36:55;1.70;;;1.60;;
25349;SDS011;13302;48.796;11.978;2023-07-31T13:39:42;1.80;;;1.70;;
25349;SDS011;13302;48.796;11.978;2023-07-31T13:42:30;2.10;;;1.90;;
25349;SDS011;13302;48.796;11.978;2023-07-31T13:45:17;1.80;;;1.70;;
25349;SDS011;13302;48.796;11.978;2023-07-31T13:48:04;1.93;;;1.70;;
25349;SDS011;13302;48.796;11.978;2023-07-31T13:50:51;2.63;;;1.90;;
25349;SDS011;13302;48.796;11.978;2023-07-31T13:53:38;2.10;;;1.90;;
25349;SDS011;13302;48.796;11.978;2023-07-31T13:56:25;2.23;;;1.80;;
25349;SDS011;13302;48.796;11.978;2023-07-31T13:59:13;3.30;;;2.10;;
25349;SDS011;13302;48.796;11.978;2023-07-31T14:02:02;2.53;;;1.70;;
25349;SDS011;13302;48.796;11.978;2023-07-31T14:04:49;2.17;;;1.80;;
25349;SDS011;13302;48.796;11.978;2023-07-31T14:07:36;1.80;;;1.70;;
25349;SDS011;13302;48.796;11.978;2023-07-31T14:10:23;1.60;;;1.50;;
25349;SDS011;13302;48.796;11.978;2023-07-31T14:13:10;2.13;;;1.93;;
25349;SDS011;13302;48.796;11.978;2023-07-31T14:15:57;2.20;;;2.00;;
25349;SDS011;13302;48.796;11.978;2023-07-31T14:18:44;2.83;;;2.00;;
25349;SDS011;13302;48.796;11.978;2023-07-31T14:21:34;1.97;;;1.87;;
25349;SDS011;13302;48.796;11.978;2023-07-31T14:24:22;2.03;;;1.93;;
25349;SDS011;13302;48.796;11.978;2023-07-31T14:27:09;3.13;;;2.03;;
25349;SDS011;13302;48.796;11.978;2023-07-31T14:29:56;2.37;;;1.97;;
25349;SDS011;13302;48.796;11.978;2023-07-31T14:32:43;2.20;;;2.00;;
25349;SDS011;13302;48.796;11.978;2023-07-31T14:35:30;2.23;;;1.80;;
25349;SDS011;13302;48.796;11.978;2023-07-31T14:38:17;1.90;;;1.70;;
25349;SDS011;13302;48.796;11.978;2023-07-31T14:41:04;2.00;;;1.90;;
25349;SDS011;13302;48.796;11.978;2023-07-31T14:43:51;2.87;;;1.90;;
25349;SDS011;13302;48.796;11.978;2023-07-31T14:46:38;2.20;;;2.00;;
25349;SDS011;13302;48.796;11.978;2023-07-31T14:49:26;2.07;;;1.83;;
25349;SDS011;13302;48.796;11.978;2023-07-31T14:52:16;2.83;;;1.87;;
25349;SDS011;13302;48.796;11.978;2023-07-31T14:55:03;3.13;;;2.40;;
25349;SDS011;13302;48.796;11.978;2023-07-31T14:57:51;4.93;;;2.10;;
25349;SDS011;13302;48.796;11.978;2023-07-31T15:00:38;2.07;;;1.87;;
25349;SDS011;13302;48.796;11.978;2023-07-31T15:03:25;2.13;;;2.03;;
25349;SDS011;13302;48.796;11.978;2023-07-31T15:06:13;1.70;;;1.60;;
25349;SDS011;13302;48.796;11.978;2023-07-31T15:09:00;2.17;;;2.07;;
25349;SDS011;13302;48.796;11.978;2023-07-31T15:11:47;2.23;;;2.00;;
25349;SDS011;13302;48.796;11.978;2023-07-31T15:14:34;4.07;;;2.10;;
25349;SDS011;13302;48.796;11.978;2023-07-31T15:17:21;2.97;;;1.43;;
25349;SDS011;13302;48.796;11.978;2023-07-31T15:20:09;2.13;;;2.03;;
25349;SDS011;13302;48.796;11.978;2023-07-31T15:22:56;2.03;;;1.93;;
25349;SDS011;13302;48.796;11.978;2023-07-31T15:25:44;2.43;;;1.90;;
25349;SDS011;13302;48.796;11.978;2023-07-31T15:28:31;1.77;;;1.67;;
25349;SDS011;13302;48.796;11.978;2023-07-31T15:31:18;5.60;;;2.23;;
25349;SDS011;13302;48.796;11.978;2023-07-31T15:34:05;2.40;;;2.17;;
25349;SDS011;13302;48.796;11.978;2023-07-31T15:36:52;2.90;;;1.90;;
25349;SDS011;13302;48.796;11.978;2023-07-31T15:39:39;1.90;;;1.80;;
25349;SDS011;13302;48.796;11.978;2023-07-31T15:42:26;1.80;;;1.70;;
25349;SDS011;13302;48.796;11.978;2023-07-31T15:45:13;1.90;;;1.80;;
25349;SDS011;13302;48.796;11.978;2023-07-31T15:48:00;2.00;;;1.90;;
25349;SDS011;13302;48.796;11.978;2023-07-31T15:50:47;2.17;;;2.03;;
25349;SDS011;13302;48.796;11.978;2023-07-31T15:53:34;2.57;;;1.70;;
25349;SDS011;13302;48.796;11.978;2023-07-31T15:56:21;3.43;;;2.10;;
25349;SDS011;13302;48.796;11.978;2023-07-31T15:59:08;2.40;;;1.97;;
25349;SDS011;13302;48.796;11.978;2023-07-31T16:01:55;2.47;;;2.27;;
25349;SDS011;13302;48.796;11.978;2023-07-31T16:04:42;2.27;;;2.10;;
25349;SDS011;13302;48.796;11.978;2023-07-31T16:07:29;2.33;;;2.00;;
25349;SDS011;13302;48.796;11.978;2023-07-31T16:10:16;1.97;;;1.87;;
25349;SDS011;13302;48.796;11.978;2023-07-31T16:13:03;2.20;;;2.03;;
25349;SDS011;13302;48.796;11.978;2023-07-31T16:15:50;2.10;;;1.90;;
25349;SDS011;13302;48.796;11.978;2023-07-31T16:18:37;2.53;;;1.80;;
25349;SDS011;13302;48.796;11.978;2023-07-31T16:21:24;1.80;;;1.70;;
25349;SDS011;13302;48.796;11.978;2023-07-31T16:24:12;1.93;;;1.77;;
25349;SDS011;13302;48.796;11.978;2023-07-31T16:26:59;2.30;;;1.80;;
25349;SDS011;13302;48.796;11.978;2023-07-31T16:29:46;2.13;;;1.87;;
25349;SDS011;13302;48.796;11.978;2023-07-31T16:32:33;2.00;;;1.90;;
25349;SDS011;13302;48.796;11.978;2023-07-31T16:35:20;1.83;;;1.73;;
25349;SDS011;13302;48.796;11.978;2023-07-31T16:38:07;2.67;;;2.00;;
25349;SDS011;13302;48.796;11.978;2023-07-31T16:40:54;2.50;;;1.97;;
25349;SDS011;13302;48.796;11.978;2023-07-31T16:43:41;2.73;;;2.10;;